sensor_id;sensor_type;location;lat;lon;timestamp;P1;durP1;ratioP1;P2;durP2;ratioP2
77217;SDS011;66214;51.302;17.068;2023-01-25T00:01:48;107.10;;;34.80;;
77217;SDS011;66214;51.302;17.068;2023-01-25T00:04:20;95.50;;;33.00;;
77217;SDS011;66214;51.302;17.068;2023-01-25T00:06:49;84.20;;;26.70;;
77217;SDS011;66214;51.302;17.068;2023-01-25T00:09:19;86.60;;;27.50;;
77217;SDS011;66214;51.302;17.068;2023-01-25T00:11:48;85.30;;;29.60;;
77217;SDS011;66214;51.302;17.068;2023-01-25T00:14:16;74.40;;;25.40;;
77217;SDS011;66214;51.302;17.068;2023-01-25T00:16:44;84.50;;;26.90;;
77217;SDS011;66214;51.302;17.068;2023-01-25T00:19:12;78.30;;;25.70;;
77217;SDS011;66214;51.302;17.068;2023-01-25T00:21:40;72.20;;;21.50;;
77217;SDS011;66214;51.302;17.068;2023-01-25T00:24:09;90.20;;;27.20;;
77217;SDS011;66214;51.302;17.068;2023-01-25T00:26:39;106.40;;;34.40;;
77217;SDS011;66214;51.302;17.068;2023-01-25T00:29:11;122.20;;;36.70;;
77217;SDS011;66214;51.302;17.068;2023-01-25T00:31:50;113.40;;;33.80;;
77217;SDS011;66214;51.302;17.068;2023-01-25T00:37:22;111.20;;;36.80;;
77217;SDS011;66214;51.302;17.068;2023-01-25T00:39:55;83.60;;;29.90;;
77217;SDS011;66214;51.302;17.068;2023-01-25T00:42:23;79.10;;;29.00;;
77217;SDS011;66214;51.302;17.068;2023-01-25T00:44:51;78.00;;;27.70;;
77217;SDS011;66214;51.302;17.068;2023-01-25T00:47:19;85.50;;;26.80;;
77217;SDS011;66214;51.302;17.068;2023-01-25T00:49:47;66.00;;;24.90;;
77217;SDS011;66214;51.302;17.068;2023-01-25T00:52:17;80.80;;;26.20;;
77217;SDS011;66214;51.302;17.068;2023-01-25T00:54:45;70.20;;;23.60;;
77217;SDS011;66214;51.302;17.068;2023-01-25T00:57:13;80.30;;;24.60;;
77217;SDS011;66214;51.302;17.068;2023-01-25T00:59:41;94.00;;;29.00;;
77217;SDS011;66214;51.302;17.068;2023-01-25T01:02:11;115.70;;;34.00;;
77217;SDS011;66214;51.302;17.068;2023-01-25T01:04:39;122.70;;;36.80;;
77217;SDS011;66214;51.302;17.068;2023-01-25T01:07:07;100.60;;;33.20;;
77217;SDS011;66214;51.302;17.068;2023-01-25T01:09:35;109.10;;;34.10;;
77217;SDS011;66214;51.302;17.068;2023-01-25T01:12:03;110.70;;;32.40;;
77217;SDS011;66214;51.302;17.068;2023-01-25T01:14:31;82.90;;;30.00;;
77217;SDS011;66214;51.302;17.068;2023-01-25T01:16:59;85.70;;;29.00;;
77217;SDS011;66214;51.302;17.068;2023-01-25T01:19:28;77.90;;;28.20;;
77217;SDS011;66214;51.302;17.068;2023-01-25T01:21:56;74.40;;;25.60;;
77217;SDS011;66214;51.302;17.068;2023-01-25T01:24:24;76.90;;;25.30;;
77217;SDS011;66214;51.302;17.068;2023-01-25T01:26:52;78.00;;;24.70;;
77217;SDS011;66214;51.302;17.068;2023-01-25T01:29:20;64.20;;;22.80;;
77217;SDS011;66214;51.302;17.068;2023-01-25T01:31:50;64.40;;;22.20;;
77217;SDS011;66214;51.302;17.068;2023-01-25T01:34:19;93.70;;;28.70;;
77217;SDS011;66214;51.302;17.068;2023-01-25T01:36:47;113.30;;;34.30;;
77217;SDS011;66214;51.302;17.068;2023-01-25T01:39:15;126.90;;;38.00;;
77217;SDS011;66214;51.302;17.068;2023-01-25T01:41:43;98.60;;;32.10;;
77217;SDS011;66214;51.302;17.068;2023-01-25T01:44:19;109.30;;;31.80;;
77217;SDS011;66214;51.302;17.068;2023-01-25T01:46:54;106.40;;;33.50;;
77217;SDS011;66214;51.302;17.068;2023-01-25T01:49:26;85.60;;;29.20;;
77217;SDS011;66214;51.302;17.068;2023-01-25T01:52:08;72.40;;;26.70;;
77217;SDS011;66214;51.302;17.068;2023-01-25T01:54:54;69.30;;;25.30;;
77217;SDS011;66214;51.302;17.068;2023-01-25T01:57:36;75.50;;;26.60;;
77217;SDS011;66214;51.302;17.068;2023-01-25T02:00:20;65.10;;;22.10;;
77217;SDS011;66214;51.302;17.068;2023-01-25T02:02:50;70.50;;;23.40;;
77217;SDS011;66214;51.302;17.068;2023-01-25T02:08:07;76.00;;;23.10;;
77217;SDS011;66214;51.302;17.068;2023-01-25T02:10:37;77.40;;;23.50;;
77217;SDS011;66214;51.302;17.068;2023-01-25T02:13:05;99.90;;;31.00;;
77217;SDS011;66214;51.302;17.068;2023-01-25T02:15:54;101.10;;;32.90;;
77217;SDS011;66214;51.302;17.068;2023-01-25T02:18:25;105.20;;;33.10;;
77217;SDS011;66214;51.302;17.068;2023-01-25T02:20:55;103.30;;;32.80;;
77217;SDS011;66214;51.302;17.068;2023-01-25T02:23:34;103.70;;;34.80;;
77217;SDS011;66214;51.302;17.068;2023-01-25T02:26:08;88.30;;;30.40;;
77217;SDS011;66214;51.302;17.068;2023-01-25T02:31:14;86.80;;;28.70;;
77217;SDS011;66214;51.302;17.068;2023-01-25T02:33:43;74.00;;;27.30;;
77217;SDS011;66214;51.302;17.068;2023-01-25T02:36:18;79.40;;;27.10;;
77217;SDS011;66214;51.302;17.068;2023-01-25T02:38:58;69.30;;;23.60;;
77217;SDS011;66214;51.302;17.068;2023-01-25T02:41:39;77.60;;;24.30;;
77217;SDS011;66214;51.302;17.068;2023-01-25T02:44:14;70.50;;;22.20;;
77217;SDS011;66214;51.302;17.068;2023-01-25T02:46:44;96.80;;;28.70;;
77217;SDS011;66214;51.302;17.068;2023-01-25T19:53:46;28.00;;;11.70;;
77217;SDS011;66214;51.302;17.068;2023-01-25T19:56:22;31.00;;;13.00;;
77217;SDS011;66214;51.302;17.068;2023-01-25T19:58:54;39.80;;;16.90;;
77217;SDS011;66214;51.302;17.068;2023-01-25T20:01:24;34.20;;;13.50;;
77217;SDS011;66214;51.302;17.068;2023-01-25T20:03:54;38.70;;;14.80;;
77217;SDS011;66214;51.302;17.068;2023-01-25T20:06:25;34.50;;;16.40;;
77217;SDS011;66214;51.302;17.068;2023-01-25T20:08:54;28.40;;;11.80;;
77217;SDS011;66214;51.302;17.068;2023-01-25T20:11:28;23.20;;;9.30;;
77217;SDS011;66214;51.302;17.068;2023-01-25T20:14:01;25.50;;;11.00;;
77217;SDS011;66214;51.302;17.068;2023-01-25T20:16:33;24.20;;;10.80;;
77217;SDS011;66214;51.302;17.068;2023-01-25T20:19:02;27.70;;;11.10;;
77217;SDS011;66214;51.302;17.068;2023-01-25T20:21:31;29.90;;;13.10;;
77217;SDS011;66214;51.302;17.068;2023-01-25T20:24:03;26.90;;;11.00;;
77217;SDS011;66214;51.302;17.068;2023-01-25T20:26:34;22.40;;;10.30;;
77217;SDS011;66214;51.302;17.068;2023-01-25T20:29:06;32.20;;;13.90;;
77217;SDS011;66214;51.302;17.068;2023-01-25T20:31:37;30.70;;;10.80;;
77217;SDS011;66214;51.302;17.068;2023-01-25T20:34:16;33.00;;;13.50;;
77217;SDS011;66214;51.302;17.068;2023-01-25T20:36:47;49.30;;;19.00;;
77217;SDS011;66214;51.302;17.068;2023-01-25T20:39:18;39.40;;;17.30;;
77217;SDS011;66214;51.302;17.068;2023-01-25T20:41:48;41.10;;;17.00;;
77217;SDS011;66214;51.302;17.068;2023-01-25T20:44:20;40.80;;;17.40;;
77217;SDS011;66214;51.302;17.068;2023-01-25T20:46:49;34.60;;;14.40;;
77217;SDS011;66214;51.302;17.068;2023-01-25T20:49:18;36.80;;;15.00;;
77217;SDS011;66214;51.302;17.068;2023-01-25T20:51:47;32.60;;;14.10;;
77217;SDS011;66214;51.302;17.068;2023-01-25T20:54:15;30.10;;;12.00;;
77217;SDS011;66214;51.302;17.068;2023-01-25T20:56:44;22.80;;;10.40;;
77217;SDS011;66214;51.302;17.068;2023-01-25T20:59:17;33.40;;;12.10;;
77217;SDS011;66214;51.302;17.068;2023-01-25T21:05:22;17.10;;;6.70;;
77217;SDS011;66214;51.302;17.068;2023-01-25T21:07:51;42.00;;;16.10;;
77217;SDS011;66214;51.302;17.068;2023-01-25T21:10:19;39.90;;;15.30;;
77217;SDS011;66214;51.302;17.068;2023-01-25T21:12:47;37.50;;;14.70;;
77217;SDS011;66214;51.302;17.068;2023-01-25T21:15:16;43.50;;;14.60;;
77217;SDS011;66214;51.302;17.068;2023-01-25T21:17:50;46.90;;;20.10;;
77217;SDS011;66214;51.302;17.068;2023-01-25T21:20:19;41.90;;;18.00;;
77217;SDS011;66214;51.302;17.068;2023-01-25T21:22:47;33.30;;;15.00;;
77217;SDS011;66214;51.302;17.068;2023-01-25T21:25:15;38.40;;;14.60;;
77217;SDS011;66214;51.302;17.068;2023-01-25T21:27:44;30.00;;;13.90;;
77217;SDS011;66214;51.302;17.068;2023-01-25T21:30:12;37.20;;;14.90;;
77217;SDS011;66214;51.302;17.068;2023-01-25T21:32:42;37.50;;;16.90;;
77217;SDS011;66214;51.302;17.068;2023-01-25T21:35:10;30.80;;;13.10;;
77217;SDS011;66214;51.302;17.068;2023-01-25T21:37:38;33.50;;;12.60;;
77217;SDS011;66214;51.302;17.068;2023-01-25T21:40:07;28.80;;;11.70;;
77217;SDS011;66214;51.302;17.068;2023-01-25T21:42:36;30.40;;;11.50;;
77217;SDS011;66214;51.302;17.068;2023-01-25T21:45:05;33.90;;;12.90;;
77217;SDS011;66214;51.302;17.068;2023-01-25T21:47:57;37.10;;;13.30;;
77217;SDS011;66214;51.302;17.068;2023-01-25T21:50:26;49.90;;;19.10;;
77217;SDS011;66214;51.302;17.068;2023-01-25T21:53:12;50.90;;;17.10;;
77217;SDS011;66214;51.302;17.068;2023-01-25T21:55:40;42.80;;;15.00;;
77217;SDS011;66214;51.302;17.068;2023-01-25T21:58:09;46.30;;;17.80;;
77217;SDS011;66214;51.302;17.068;2023-01-25T22:00:37;35.60;;;14.90;;
77217;SDS011;66214;51.302;17.068;2023-01-25T22:03:05;35.10;;;14.00;;
77217;SDS011;66214;51.302;17.068;2023-01-25T22:05:33;30.10;;;12.40;;
77217;SDS011;66214;51.302;17.068;2023-01-25T22:08:01;35.60;;;13.60;;
77217;SDS011;66214;51.302;17.068;2023-01-25T22:10:29;28.30;;;11.90;;
77217;SDS011;66214;51.302;17.068;2023-01-25T22:12:57;29.60;;;12.00;;
77217;SDS011;66214;51.302;17.068;2023-01-25T22:15:25;25.60;;;9.70;;
77217;SDS011;66214;51.302;17.068;2023-01-25T22:17:53;29.40;;;12.80;;
77217;SDS011;66214;51.302;17.068;2023-01-25T22:20:21;37.00;;;14.30;;
77217;SDS011;66214;51.302;17.068;2023-01-25T22:30:12;45.80;;;18.40;;
77217;SDS011;66214;51.302;17.068;2023-01-25T22:32:40;39.90;;;17.10;;
77217;SDS011;66214;51.302;17.068;2023-01-25T22:35:08;38.20;;;14.80;;
77217;SDS011;66214;51.302;17.068;2023-01-25T22:37:36;33.90;;;12.70;;
77217;SDS011;66214;51.302;17.068;2023-01-25T22:40:06;28.90;;;12.50;;
77217;SDS011;66214;51.302;17.068;2023-01-25T22:42:34;32.00;;;12.80;;
77217;SDS011;66214;51.302;17.068;2023-01-25T22:48:24;24.70;;;10.50;;
77217;SDS011;66214;51.302;17.068;2023-01-25T22:50:53;27.60;;;10.80;;
77217;SDS011;66214;51.302;17.068;2023-01-25T22:53:27;25.30;;;10.70;;
77217;SDS011;66214;51.302;17.068;2023-01-25T22:58:35;26.00;;;9.80;;
77217;SDS011;66214;51.302;17.068;2023-01-25T23:01:11;31.00;;;11.90;;
77217;SDS011;66214;51.302;17.068;2023-01-25T23:03:45;37.20;;;14.90;;
77217;SDS011;66214;51.302;17.068;2023-01-25T23:06:16;46.10;;;15.50;;
77217;SDS011;66214;51.302;17.068;2023-01-25T23:08:48;44.10;;;17.60;;
77217;SDS011;66214;51.302;17.068;2023-01-25T23:11:19;36.30;;;14.40;;
77217;SDS011;66214;51.302;17.068;2023-01-25T23:13:49;40.80;;;16.20;;
77217;SDS011;66214;51.302;17.068;2023-01-25T23:16:38;36.90;;;16.20;;
77217;SDS011;66214;51.302;17.068;2023-01-25T23:19:06;26.60;;;10.40;;
77217;SDS011;66214;51.302;17.068;2023-01-25T23:21:34;31.70;;;11.70;;
77217;SDS011;66214;51.302;17.068;2023-01-25T23:24:03;34.10;;;13.30;;
77217;SDS011;66214;51.302;17.068;2023-01-25T23:26:33;33.90;;;11.80;;
77217;SDS011;66214;51.302;17.068;2023-01-25T23:29:09;37.60;;;13.40;;
77217;SDS011;66214;51.302;17.068;2023-01-25T23:31:38;35.00;;;14.20;;
77217;SDS011;66214;51.302;17.068;2023-01-25T23:34:10;30.30;;;12.90;;
77217;SDS011;66214;51.302;17.068;2023-01-25T23:36:38;33.90;;;12.40;;
77217;SDS011;66214;51.302;17.068;2023-01-25T23:39:11;36.70;;;13.80;;
77217;SDS011;66214;51.302;17.068;2023-01-25T23:41:39;41.50;;;16.30;;
77217;SDS011;66214;51.302;17.068;2023-01-25T23:44:08;48.80;;;18.30;;
77217;SDS011;66214;51.302;17.068;2023-01-25T23:46:36;36.00;;;13.20;;
77217;SDS011;66214;51.302;17.068;2023-01-25T23:49:04;50.80;;;19.30;;
77217;SDS011;66214;51.302;17.068;2023-01-25T23:51:33;41.80;;;16.80;;
77217;SDS011;66214;51.302;17.068;2023-01-25T23:54:01;38.00;;;14.10;;
77217;SDS011;66214;51.302;17.068;2023-01-25T23:56:29;36.40;;;13.70;;
77217;SDS011;66214;51.302;17.068;2023-01-25T23:58:57;32.70;;;11.70;;
